Archival Weather

Chicago O'Hare International

Chicago, Illinois (KORD)

Report from: Wednesday, December 21, 2022 5:41 PM CST
Current time: Friday, June 21, 2024 2:36 AM CDT

Current weather – Weather history – Daily summaries
Weather forecast

Temperature-1.1°C (30.0°F)
Wind chill-3.8°C (25.1°F)
Dew point-5.0°C (23.0°F)
Winds 4 kts (2.1 m/s, 4.6 mph) South-Southeast (150°)
Visibility8 mi. (12.9 km)
Clouds Ceiling: Broken clouds 1,700 ft. (518 m)
Overcast 14,000 ft. (4,267 m)
Altimeter30.20 in.Hg (1023 mB)
Relative humidity75 %
Density altitude-2,227 ft. (-679 m)
Remarks Automated weather observing station with precipitation discriminator
Flight conditions Marginal Visual Meteorological Conditions
Raw dataKORD 212341Z 15004KT 8SM BKN017 OVC140 M01/M05 A3020 RMK AO2 T10111050
An error has occurred. This application may no longer respond until reloaded. Reload 🗙